Terminal Aerodrome Forecast
Issued by NWS Cleveland, OH

Home | Current Version | Previous Version | Text Only | Print | Product List | Glossary On
Versions: 1 2 3 4 5 6 7 8 9 10 11 12 13 14 15 16 17 18
579
FTUS41 KCLE 181740
TAFYNG
TAF
KYNG 181740Z 1818/1918 20012G20KT 2SM -SHRA BKN004 OVC012
      WS020/22045KT
     FM182100 18015G28KT 2SM -SHRA VCTS OVC004CB
      TEMPO 1822/1901 VRB30G40KT 3/4SM TSRA OVC003CB
     FM190200 27020G35KT 2SM -SHRA BR OVC005
     FM191200 30020G40KT P6SM VCSH SCT005 OVC012=

USA.gov is the U.S. government's official web portal to all federal, state and local government web resources and services.